Time;durP1;ratioP1;P1;durP2;ratioP2;P2;SDS_P1;SDS_P2;PMS_P1;PMS_P2;Temp;Humidity;BMP_temperature;BMP_pressure;BME280_temperature;BME280_humidity;BME280_pressure;Samples;Min_cycle;Max_cycle;Signal;HPM_P1;HPM_P2
2022/03/03 00:01:16;;;;;;;13.93;5.13;;;5.20;92.70;;;;;;5012301;28;20042;-67
2022/03/03 00:03:41;;;;;;;12.30;5.07;;;5.20;92.80;;;;;;5013936;28;20566;-67
2022/03/03 00:06:07;;;;;;;14.23;6.65;;;5.20;93.00;;;;;;5012939;28;20037;-68
2022/03/03 00:08:32;;;;;;;9.95;4.82;;;5.10;93.40;;;;;;5012627;28;20036;-67
2022/03/03 00:10:58;;;;;;;12.70;5.60;;;5.10;93.40;;;;;;5009878;28;20037;-68
2022/03/03 00:13:23;;;;;;;11.02;4.85;;;5.00;93.60;;;;;;5009442;28;20437;-68
2022/03/03 00:15:49;;;;;;;13.40;5.07;;;5.00;93.90;;;;;;5010102;28;20608;-67
2022/03/03 00:18:15;;;;;;;12.80;5.00;;;5.00;94.00;;;;;;5010044;28;20022;-67
2022/03/03 00:20:40;;;;;;;14.80;6.28;;;4.90;94.30;;;;;;5010021;28;20038;-68
2022/03/03 00:23:06;;;;;;;12.13;5.32;;;4.90;94.40;;;;;;5008201;28;20026;-68
2022/03/03 00:25:33;;;;;;;12.82;4.97;;;4.90;94.40;;;;;;5010368;28;20034;-66
2022/03/03 00:27:58;;;;;;;14.30;5.78;;;4.90;94.70;;;;;;5009598;28;20033;-68
2022/03/03 00:30:24;;;;;;;12.23;4.97;;;4.90;94.70;;;;;;5009787;28;20037;-68
2022/03/03 00:32:49;;;;;;;13.07;5.03;;;4.80;94.90;;;;;;5010107;28;20041;-67
2022/03/03 00:35:15;;;;;;;11.75;4.57;;;4.70;95.40;;;;;;5009689;28;20498;-68
2022/03/03 00:37:40;;;;;;;15.27;4.82;;;4.80;95.40;;;;;;5008489;28;20030;-68
2022/03/03 00:40:07;;;;;;;12.57;5.53;;;4.80;95.70;;;;;;5009158;28;20033;-68
2022/03/03 00:42:32;;;;;;;14.18;6.10;;;4.80;95.70;;;;;;5009768;28;20037;-68
2022/03/03 00:44:58;;;;;;;11.00;5.15;;;4.70;95.90;;;;;;5008323;28;20030;-68
2022/03/03 00:47:24;;;;;;;13.20;4.70;;;4.70;96.00;;;;;;5005813;28;20030;-67
2022/03/03 00:49:50;;;;;;;14.48;5.15;;;4.70;96.40;;;;;;5009961;28;20128;-66
2022/03/03 00:52:15;;;;;;;14.13;6.25;;;4.60;96.80;;;;;;5009541;28;20133;-68
2022/03/03 00:54:41;;;;;;;12.18;5.15;;;4.60;96.90;;;;;;5009930;28;20038;-68
2022/03/03 00:57:06;;;;;;;13.82;5.55;;;4.50;97.50;;;;;;5008695;28;20034;-67
2022/03/03 00:59:32;;;;;;;14.13;5.65;;;4.50;97.70;;;;;;5009336;28;20029;-68
2022/03/03 01:01:58;;;;;;;12.38;5.95;;;4.40;97.90;;;;;;5007588;28;20071;-68
2022/03/03 01:04:23;;;;;;;13.70;5.82;;;4.40;98.00;;;;;;5008316;28;20124;-67
2022/03/03 01:06:50;;;;;;;21.23;5.43;;;4.30;98.20;;;;;;5008163;28;20053;-68
2022/03/03 01:09:15;;;;;;;14.00;5.75;;;4.30;98.40;;;;;;5007916;28;20026;-67
2022/03/03 01:11:41;;;;;;;12.60;5.03;;;4.20;98.80;;;;;;5009148;28;20053;-68
2022/03/03 01:14:07;;;;;;;10.45;4.90;;;4.20;99.00;;;;;;5007330;28;20053;-68
2022/03/03 01:16:33;;;;;;;16.27;5.70;;;4.20;99.30;;;;;;5009355;28;20461;-68
2022/03/03 01:18:59;;;;;;;12.73;5.20;;;4.30;99.50;;;;;;5007649;28;20034;-68
2022/03/03 01:21:24;;;;;;;13.63;5.28;;;4.20;99.10;;;;;;5009503;28;20040;-68
2022/03/03 01:23:50;;;;;;;14.18;5.57;;;4.20;99.40;;;;;;5007690;28;20026;-67
2022/03/03 01:26:16;;;;;;;13.82;6.35;;;4.20;99.50;;;;;;5009342;28;20046;-67
2022/03/03 01:28:41;;;;;;;14.98;6.13;;;4.20;99.90;;;;;;5009357;28;20042;-68
2022/03/03 01:31:07;;;;;;;16.58;5.63;;;4.10;99.70;;;;;;5007923;28;20506;-68
2022/03/03 01:33:33;;;;;;;12.13;5.40;;;4.10;99.80;;;;;;5007501;28;20037;-68
2022/03/03 01:35:58;;;;;;;13.93;5.43;;;4.10;99.90;;;;;;5007562;28;20053;-68
2022/03/03 01:38:24;;;;;;;13.90;5.28;;;4.10;99.90;;;;;;5008435;22;20038;-64
2022/03/03 01:40:49;;;;;;;15.02;5.72;;;4.10;99.90;;;;;;4987347;28;20034;-64
2022/03/03 01:43:15;;;;;;;12.13;5.75;;;4.00;99.90;;;;;;4995857;28;20043;-64
2022/03/03 01:45:40;;;;;;;17.02;6.22;;;4.00;99.90;;;;;;4988912;28;20050;-64
2022/03/03 01:48:06;;;;;;;11.70;5.07;;;3.90;99.90;;;;;;4988113;28;20026;-64
2022/03/03 01:50:32;;;;;;;17.77;5.65;;;4.00;99.90;;;;;;4989824;28;20049;-64
2022/03/03 01:52:57;;;;;;;14.15;5.72;;;3.90;99.90;;;;;;4989387;28;20372;-63
2022/03/03 01:55:24;;;;;;;14.65;5.15;;;4.00;99.90;;;;;;4989459;28;20749;-64
2022/03/03 01:57:50;;;;;;;14.45;5.70;;;4.00;99.90;;;;;;4985915;28;20060;-64
2022/03/03 02:00:16;;;;;;;13.02;5.15;;;4.00;99.90;;;;;;4989723;28;20448;-64
2022/03/03 02:02:42;;;;;;;18.73;5.85;;;4.00;99.90;;;;;;4990090;28;20043;-63
2022/03/03 02:05:08;;;;;;;11.55;5.15;;;3.90;99.90;;;;;;4989682;28;20027;-64
2022/03/03 02:07:35;;;;;;;14.80;5.70;;;3.90;99.90;;;;;;4989674;28;20032;-64
2022/03/03 02:10:02;;;;;;;12.35;5.15;;;3.90;99.90;;;;;;4988617;28;20034;-64
2022/03/03 02:12:28;;;;;;;9.98;4.60;;;3.80;99.90;;;;;;4992283;28;20045;-64
2022/03/03 02:14:54;;;;;;;15.55;6.38;;;3.80;99.90;;;;;;4992035;28;20027;-64
2022/03/03 02:17:20;;;;;;;13.13;6.38;;;3.80;99.90;;;;;;4994033;28;20026;-64
2022/03/03 02:19:45;;;;;;;13.75;6.18;;;3.80;99.90;;;;;;4994032;28;20026;-64
2022/03/03 02:22:11;;;;;;;14.25;5.45;;;3.80;99.90;;;;;;4992037;28;20526;-63
2022/03/03 02:24:38;;;;;;;16.60;5.88;;;3.80;99.90;;;;;;4993353;28;20525;-64
2022/03/03 02:27:04;;;;;;;14.80;5.72;;;3.80;99.90;;;;;;4991674;28;20046;-64
2022/03/03 02:29:31;;;;;;;12.82;5.25;;;3.80;99.90;;;;;;4993857;28;20125;-64
2022/03/03 02:31:57;;;;;;;11.45;5.25;;;3.80;99.90;;;;;;4993805;28;20038;-64
2022/03/03 02:34:23;;;;;;;18.35;5.80;;;3.70;99.90;;;;;;4993425;28;20056;-65
2022/03/03 02:36:49;;;;;;;13.23;6.28;;;3.70;99.90;;;;;;4994855;28;20053;-65
2022/03/03 02:39:15;;;;;;;13.27;5.10;;;3.70;99.90;;;;;;4995253;28;20042;-64
2022/03/03 02:41:40;;;;;;;15.07;6.13;;;3.70;99.90;;;;;;4997479;28;20041;-65
2022/03/03 02:44:06;;;;;;;16.23;6.05;;;3.60;99.90;;;;;;4996438;28;20038;-64
2022/03/03 02:46:31;;;;;;;13.93;5.75;;;3.60;99.90;;;;;;4994572;28;20373;-64
2022/03/03 02:48:57;;;;;;;14.20;5.68;;;3.60;99.90;;;;;;4991809;28;20026;-64
2022/03/03 02:51:23;;;;;;;13.60;5.00;;;3.50;99.90;;;;;;4992949;28;20042;-64
2022/03/03 02:53:49;;;;;;;17.58;6.50;;;3.50;99.90;;;;;;4994960;28;20746;-64
2022/03/03 02:56:15;;;;;;;14.00;5.53;;;3.50;99.90;;;;;;4989381;28;20117;-64
2022/03/03 02:58:41;;;;;;;11.30;5.15;;;3.50;99.90;;;;;;4994198;28;20034;-64
2022/03/03 03:01:08;;;;;;;18.80;6.93;;;3.40;99.90;;;;;;4991896;28;20503;-64
2022/03/03 03:03:34;;;;;;;15.00;5.65;;;3.40;99.90;;;;;;4991895;28;20108;-63
2022/03/03 03:06:00;;;;;;;12.13;5.18;;;3.30;99.90;;;;;;4992996;28;20113;-63
2022/03/03 03:08:25;;;;;;;15.63;5.93;;;3.30;99.90;;;;;;4992670;28;20122;-64
2022/03/03 03:10:51;;;;;;;13.32;5.60;;;3.20;99.90;;;;;;4991052;28;20042;-64
2022/03/03 03:13:17;;;;;;;16.58;5.32;;;3.30;99.90;;;;;;4992914;28;20034;-64
2022/03/03 03:15:44;;;;;;;18.85;6.18;;;3.30;99.90;;;;;;4993350;28;20027;-64
2022/03/03 03:18:11;;;;;;;14.05;5.05;;;3.30;99.90;;;;;;4991920;28;20037;-64
2022/03/03 03:20:39;;;;;;;13.73;5.80;;;3.20;99.90;;;;;;4992183;28;20042;-64
2022/03/03 03:23:05;;;;;;;13.90;5.90;;;3.20;99.90;;;;;;4990254;28;20035;-64
2022/03/03 03:25:30;;;;;;;23.35;6.13;;;3.20;99.90;;;;;;4991822;28;20035;-64
2022/03/03 03:27:56;;;;;;;13.05;5.38;;;3.10;99.90;;;;;;4991679;28;20034;-64
2022/03/03 03:30:22;;;;;;;13.63;5.97;;;3.10;99.90;;;;;;4992019;28;20038;-64
2022/03/03 03:32:47;;;;;;;15.70;5.30;;;3.00;99.90;;;;;;4992076;28;20026;-64
2022/03/03 03:35:13;;;;;;;13.90;6.25;;;3.10;99.90;;;;;;4991109;28;20108;-64
2022/03/03 03:37:38;;;;;;;12.95;5.95;;;3.10;99.90;;;;;;4990301;28;20117;-64
2022/03/03 03:40:07;;;;;;;15.40;6.57;;;3.00;99.90;;;;;;4991522;28;20521;-65
2022/03/03 03:42:33;;;;;;;14.48;6.05;;;3.00;99.90;;;;;;4995043;28;20082;-64
2022/03/03 03:44:59;;;;;;;15.35;6.60;;;3.10;99.90;;;;;;4991620;28;20030;-64
2022/03/03 03:47:25;;;;;;;12.35;5.20;;;3.10;99.90;;;;;;4991713;28;20031;-64
2022/03/03 03:49:51;;;;;;;14.07;5.97;;;3.00;99.90;;;;;;4991419;28;20036;-65
2022/03/03 03:52:16;;;;;;;15.85;5.65;;;3.00;99.90;;;;;;4989970;28;20049;-64
2022/03/03 03:54:42;;;;;;;13.23;6.35;;;2.90;99.90;;;;;;4990235;28;20503;-64
2022/03/03 03:57:08;;;;;;;13.73;6.10;;;2.90;99.90;;;;;;4989960;28;20045;-64
2022/03/03 03:59:33;;;;;;;13.57;5.72;;;2.90;99.90;;;;;;4991570;28;20406;-65
2022/03/03 04:01:59;;;;;;;15.93;6.43;;;2.80;99.90;;;;;;4991384;28;20085;-65
2022/03/03 04:04:24;;;;;;;12.15;4.90;;;2.80;99.90;;;;;;4991448;28;20038;-65
2022/03/03 04:06:50;;;;;;;14.82;6.30;;;2.90;99.90;;;;;;4991311;28;20088;-64
2022/03/03 04:09:16;;;;;;;12.68;5.35;;;2.90;99.90;;;;;;4990922;28;20662;-64
2022/03/03 04:11:41;;;;;;;11.52;5.40;;;2.80;99.90;;;;;;4991111;28;20034;-64
2022/03/03 04:14:07;;;;;;;15.85;6.25;;;2.80;99.90;;;;;;4989642;28;20571;-64
2022/03/03 04:16:32;;;;;;;16.20;6.28;;;2.70;99.90;;;;;;4991246;28;20465;-64
2022/03/03 04:18:58;;;;;;;12.35;5.07;;;2.70;99.90;;;;;;4991236;28;20121;-64
2022/03/03 04:21:23;;;;;;;14.60;5.43;;;2.70;99.90;;;;;;4988250;28;20042;-64
2022/03/03 04:23:49;;;;;;;15.95;5.82;;;2.70;99.90;;;;;;4991381;28;20117;-63
2022/03/03 04:26:15;;;;;;;18.02;6.90;;;2.70;99.90;;;;;;4990820;28;20046;-64
2022/03/03 04:28:41;;;;;;;13.98;5.95;;;2.70;99.90;;;;;;4989726;28;20038;-64
2022/03/03 04:31:06;;;;;;;16.10;6.32;;;2.60;99.90;;;;;;4989117;28;20034;-64
2022/03/03 04:33:32;;;;;;;20.55;6.38;;;2.60;99.90;;;;;;4988658;28;20034;-65
2022/03/03 04:35:58;;;;;;;15.55;6.63;;;2.60;99.90;;;;;;4990164;28;20445;-64
2022/03/03 04:38:25;;;;;;;14.40;5.63;;;2.50;99.90;;;;;;4989512;28;20041;-64
2022/03/03 04:40:51;;;;;;;17.25;7.38;;;2.50;99.90;;;;;;4990828;28;20168;-64
2022/03/03 04:43:16;;;;;;;12.60;4.90;;;2.40;99.90;;;;;;4993557;28;20149;-64
2022/03/03 04:45:42;;;;;;;11.68;5.25;;;2.50;99.90;;;;;;4991302;28;20065;-65
2022/03/03 04:48:09;;;;;;;15.15;6.50;;;2.50;99.90;;;;;;4990675;28;20030;-64
2022/03/03 04:50:34;;;;;;;15.15;5.95;;;2.40;99.90;;;;;;4988729;28;20053;-64
2022/03/03 04:53:00;;;;;;;13.35;5.63;;;2.50;99.90;;;;;;4988685;28;20026;-64
2022/03/03 04:55:25;;;;;;;13.50;5.55;;;2.40;99.90;;;;;;4990223;28;20034;-64
2022/03/03 04:57:51;;;;;;;16.08;5.95;;;2.40;99.90;;;;;;4990537;28;20023;-64
2022/03/03 05:00:17;;;;;;;14.65;5.68;;;2.40;99.90;;;;;;4989993;28;20034;-64
2022/03/03 05:02:43;;;;;;;13.77;5.85;;;2.40;99.90;;;;;;4990420;28;20045;-63
2022/03/03 05:05:09;;;;;;;13.48;5.78;;;2.40;99.90;;;;;;4986320;28;20510;-64
2022/03/03 05:07:34;;;;;;;14.95;5.47;;;2.40;99.90;;;;;;4990810;28;20030;-64
2022/03/03 05:10:00;;;;;;;16.83;6.63;;;2.40;99.90;;;;;;4988431;28;20089;-64
2022/03/03 05:12:26;;;;;;;11.38;5.65;;;2.40;99.90;;;;;;4990586;28;20045;-64
2022/03/03 05:14:52;;;;;;;22.83;6.45;;;2.40;99.90;;;;;;4990314;28;20026;-63
2022/03/03 05:17:18;;;;;;;16.70;6.38;;;2.40;99.90;;;;;;4990140;28;20411;-64
2022/03/03 05:19:44;;;;;;;12.55;5.60;;;2.40;99.90;;;;;;4990384;28;20070;-64
2022/03/03 05:22:10;;;;;;;12.63;5.35;;;2.40;99.90;;;;;;4990043;28;20511;-64
2022/03/03 05:24:37;;;;;;;12.73;5.68;;;2.30;99.90;;;;;;4989059;28;20038;-64
2022/03/03 05:27:03;;;;;;;17.80;6.35;;;2.40;99.90;;;;;;4989713;28;20042;-64
2022/03/03 05:29:28;;;;;;;16.90;6.82;;;2.30;99.90;;;;;;4989267;28;20475;-64
2022/03/03 05:31:57;;;;;;;18.25;6.03;;;2.30;99.90;;;;;;4989603;28;20133;-64
2022/03/03 05:34:23;;;;;;;13.20;4.97;;;2.40;99.90;;;;;;4989255;28;20409;-63
2022/03/03 05:36:48;;;;;;;16.42;6.20;;;2.30;99.90;;;;;;4990491;28;20371;-64
2022/03/03 05:39:16;;;;;;;12.73;5.35;;;2.30;99.90;;;;;;4989026;28;20046;-65
2022/03/03 05:41:41;;;;;;;12.90;5.60;;;2.40;99.90;;;;;;4990920;28;20030;-64
2022/03/03 05:44:12;;;;;;;15.50;6.10;;;2.30;99.90;;;;;;4988775;28;20423;-64
2022/03/03 05:46:40;;;;;;;14.95;6.43;;;2.30;99.90;;;;;;4987830;28;20041;-64
2022/03/03 05:49:07;;;;;;;15.70;5.78;;;2.20;99.90;;;;;;4988735;28;20030;-64
2022/03/03 05:51:32;;;;;;;13.85;5.95;;;2.20;99.90;;;;;;4992820;28;20038;-63
2022/03/03 05:53:58;;;;;;;14.02;5.78;;;2.10;99.90;;;;;;4993731;28;20042;-64
2022/03/03 05:56:24;;;;;;;14.90;6.45;;;2.10;99.90;;;;;;4993973;28;20458;-64
2022/03/03 05:58:51;;;;;;;15.50;5.72;;;2.10;99.90;;;;;;4993019;28;20117;-63
2022/03/03 06:01:17;;;;;;;16.00;6.45;;;2.10;99.90;;;;;;4992508;28;20720;-64
2022/03/03 06:03:47;;;;;;;13.38;5.43;;;2.10;99.90;;;;;;4994742;28;20045;-64
2022/03/03 06:06:16;;;;;;;17.43;6.70;;;2.10;99.90;;;;;;4993511;28;20038;-64
2022/03/03 06:09:00;;;;;;;13.73;6.05;;;2.10;99.90;;;;;;4993965;28;20049;-64
2022/03/03 06:11:28;;;;;;;17.55;7.22;;;2.20;99.90;;;;;;4995368;28;20499;-64
2022/03/03 06:14:04;;;;;;;19.45;6.40;;;2.20;99.90;;;;;;4996383;28;20045;-64
2022/03/03 06:16:31;;;;;;;17.42;6.60;;;2.10;99.90;;;;;;5000327;28;20038;-64
2022/03/03 06:18:58;;;;;;;14.05;6.45;;;2.10;99.90;;;;;;5005035;28;20170;-64
2022/03/03 06:21:24;;;;;;;17.58;6.22;;;2.10;99.90;;;;;;5004462;28;20110;-64
2022/03/03 06:23:50;;;;;;;15.00;5.35;;;2.10;99.90;;;;;;5002715;28;20066;-65
2022/03/03 06:26:19;;;;;;;15.57;6.53;;;2.00;99.90;;;;;;5001033;28;20030;-63
2022/03/03 06:28:46;;;;;;;19.13;7.03;;;2.00;99.90;;;;;;4993206;28;20449;-64
2022/03/03 06:31:12;;;;;;;16.33;5.55;;;2.00;99.90;;;;;;4991800;28;20042;-64
2022/03/03 06:33:38;;;;;;;18.95;6.65;;;2.00;99.90;;;;;;4994084;28;20042;-64
2022/03/03 06:36:04;;;;;;;14.60;6.25;;;2.00;99.90;;;;;;4993594;28;20118;-64
2022/03/03 06:38:30;;;;;;;17.42;5.75;;;2.00;99.90;;;;;;4997130;28;20042;-64
2022/03/03 06:40:57;;;;;;;15.43;6.35;;;1.90;99.90;;;;;;4993716;28;20034;-64
2022/03/03 06:43:24;;;;;;;17.38;6.45;;;1.90;99.90;;;;;;4994015;28;20689;-65
2022/03/03 06:45:50;;;;;;;19.50;6.28;;;2.00;99.90;;;;;;4998059;28;20074;-64
2022/03/03 06:48:16;;;;;;;13.48;5.70;;;2.00;99.90;;;;;;4998389;28;20042;-64
2022/03/03 06:50:42;;;;;;;21.77;7.30;;;2.10;99.90;;;;;;4999202;28;20527;-65
2022/03/03 06:53:09;;;;;;;15.73;6.10;;;2.10;99.90;;;;;;4998485;28;20030;-64
2022/03/03 06:55:37;;;;;;;19.02;6.65;;;2.10;99.90;;;;;;4996325;28;20406;-64
2022/03/03 06:58:02;;;;;;;11.88;5.63;;;2.20;99.90;;;;;;4995783;28;20042;-64
2022/03/03 07:00:34;;;;;;;16.55;5.40;;;2.20;99.90;;;;;;4997608;28;20453;-64
2022/03/03 07:03:01;;;;;;;16.35;7.50;;;2.10;99.90;;;;;;4997840;28;20041;-65
2022/03/03 07:05:29;;;;;;;16.48;6.00;;;2.10;99.90;;;;;;4992365;28;20508;-64
2022/03/03 07:07:54;;;;;;;16.58;6.78;;;2.10;99.90;;;;;;4993132;28;20478;-64
2022/03/03 07:10:25;;;;;;;19.17;7.38;;;2.10;99.90;;;;;;4990822;28;20030;-64
2022/03/03 07:12:52;;;;;;;15.00;6.82;;;2.20;99.90;;;;;;4993153;28;20023;-64
2022/03/03 07:15:18;;;;;;;18.40;7.18;;;2.20;99.90;;;;;;4992585;28;20050;-65
2022/03/03 07:17:50;;;;;;;17.40;6.25;;;2.30;99.90;;;;;;4994515;28;20117;-64
2022/03/03 07:20:23;;;;;;;13.73;5.95;;;2.40;99.90;;;;;;4991567;28;20057;-65
2022/03/03 07:23:04;;;;;;;13.57;6.38;;;2.50;99.90;;;;;;4997893;28;20027;-64
2022/03/03 07:25:40;;;;;;;;;;;2.60;99.90;;;;;;5004964;28;20026;-64
2022/03/03 07:28:08;;;;;;;16.67;6.43;;;2.70;99.90;;;;;;4998842;28;19920;-64
2022/03/03 07:30:40;;;;;;;19.67;6.45;;;2.70;99.90;;;;;;4979273;28;20062;-64
2022/03/03 07:33:17;;;;;;;16.52;6.57;;;2.80;99.90;;;;;;5001039;28;20034;-64
2022/03/03 07:35:47;;;;;;;15.13;5.68;;;2.90;99.90;;;;;;5002899;28;20080;-65
2022/03/03 07:38:15;;;;;;;19.10;6.90;;;3.10;99.90;;;;;;5004020;23;20038;-62
2022/03/03 07:40:43;;;;;;;16.58;6.93;;;3.40;99.90;;;;;;5028514;28;20121;-61
2022/03/03 07:43:10;;;;;;;18.38;6.35;;;3.50;99.90;;;;;;5029907;28;20034;-60
2022/03/03 07:45:36;;;;;;;15.10;5.82;;;3.60;99.90;;;;;;5030999;28;20049;-60
2022/03/03 07:48:02;;;;;;;19.42;5.78;;;3.90;99.90;;;;;;5030142;28;20522;-61
2022/03/03 07:50:27;;;;;;;14.45;6.30;;;4.20;99.90;;;;;;5030336;28;20037;-62
2022/03/03 07:52:54;;;;;;;14.52;6.50;;;4.40;99.90;;;;;;5030281;28;20030;-63
2022/03/03 07:55:21;;;;;;;13.95;6.07;;;4.50;99.90;;;;;;5029453;28;20033;-62
2022/03/03 07:58:03;;;;;;;14.80;6.13;;;4.90;99.90;;;;;;5026319;28;20037;-61
2022/03/03 08:00:34;;;;;;;12.57;5.95;;;5.30;99.70;;;;;;5019685;28;20036;-61
2022/03/03 08:03:05;;;;;;;13.50;5.80;;;5.40;99.20;;;;;;5030250;28;20358;-61
2022/03/03 08:05:31;;;;;;;14.02;5.68;;;5.50;98.70;;;;;;5024602;28;20025;-60
2022/03/03 08:08:00;;;;;;;27.00;6.97;;;5.70;97.90;;;;;;5025776;28;20041;-61
2022/03/03 08:10:27;;;;;;;15.20;5.65;;;6.10;96.70;;;;;;5025401;28;20029;-61
2022/03/03 08:12:56;;;;;;;13.45;5.53;;;6.30;95.40;;;;;;5027417;28;20038;-61
2022/03/03 08:15:21;;;;;;;16.65;6.07;;;6.30;95.10;;;;;;5025409;28;20044;-63
2022/03/03 08:17:52;;;;;;;11.82;5.40;;;6.20;94.30;;;;;;5026848;28;20489;-61
2022/03/03 08:20:18;;;;;;;16.23;6.13;;;6.20;93.90;;;;;;5025889;28;20099;-61
2022/03/03 08:22:44;;;;;;;12.65;5.03;;;6.10;94.10;;;;;;5027182;28;20155;-61
2022/03/03 08:25:11;;;;;;;12.68;5.45;;;6.10;93.90;;;;;;5025648;28;20065;-61
2022/03/03 08:27:37;;;;;;;12.55;5.85;;;6.20;94.20;;;;;;5027884;28;20484;-60
2022/03/03 08:30:05;;;;;;;14.18;5.50;;;6.10;94.10;;;;;;5025695;28;20136;-61
2022/03/03 08:32:40;;;;;;;11.93;4.93;;;6.20;94.00;;;;;;5027137;28;20057;-61
2022/03/03 08:35:15;;;;;;;15.43;6.07;;;6.30;94.00;;;;;;5022142;28;20054;-61
2022/03/03 08:37:44;;;;;;;18.23;5.75;;;6.30;93.20;;;;;;5025488;28;20033;-63
2022/03/03 08:40:13;;;;;;;13.15;6.20;;;6.30;94.10;;;;;;5024987;28;20033;-61
2022/03/03 08:42:44;;;;;;;13.25;6.13;;;6.50;93.00;;;;;;5024313;28;20029;-62
2022/03/03 08:45:10;;;;;;;16.90;5.50;;;6.60;92.20;;;;;;5026766;28;20072;-60
2022/03/03 08:47:38;;;;;;;14.00;5.38;;;6.60;92.20;;;;;;5026014;28;20052;-61
2022/03/03 08:50:09;;;;;;;15.63;5.78;;;6.70;92.40;;;;;;5024815;28;20695;-60
2022/03/03 08:52:39;;;;;;;13.20;5.43;;;6.70;92.40;;;;;;5027017;28;20037;-61
2022/03/03 08:55:07;;;;;;;10.32;5.10;;;6.80;91.90;;;;;;5020621;28;20068;-64
2022/03/03 08:57:32;;;;;;;10.48;5.18;;;6.90;91.70;;;;;;5025959;28;20124;-60
2022/03/03 08:59:58;;;;;;;16.67;4.82;;;7.00;91.60;;;;;;5024441;28;20132;-62
2022/03/03 09:02:23;;;;;;;13.43;5.50;;;7.10;91.10;;;;;;5026754;28;20492;-61
2022/03/03 09:04:49;;;;;;;21.35;5.75;;;7.20;91.60;;;;;;5026517;28;20496;-62
2022/03/03 09:07:15;;;;;;;13.00;5.07;;;7.30;90.70;;;;;;5028475;28;20029;-61
2022/03/03 09:09:41;;;;;;;12.05;5.57;;;7.40;90.40;;;;;;5025493;28;20492;-61
2022/03/03 09:12:07;;;;;;;18.63;6.90;;;7.50;90.60;;;;;;5025059;28;20051;-61
2022/03/03 09:14:34;;;;;;;16.35;5.75;;;7.60;90.10;;;;;;5026076;28;20036;-61
2022/03/03 09:16:59;;;;;;;13.90;5.65;;;7.70;91.10;;;;;;5025083;28;20087;-61
2022/03/03 09:19:26;;;;;;;16.48;4.95;;;7.80;89.40;;;;;;5024496;28;20045;-60
2022/03/03 09:21:52;;;;;;;10.48;4.47;;;7.90;87.10;;;;;;5025171;28;20378;-61
2022/03/03 09:24:18;;;;;;;12.00;5.00;;;7.90;87.90;;;;;;5025071;28;20045;-62
2022/03/03 09:26:43;;;;;;;14.52;5.72;;;8.00;85.70;;;;;;5025031;28;20033;-62
2022/03/03 09:29:09;;;;;;;13.82;5.63;;;8.10;85.60;;;;;;5026482;28;20139;-61
2022/03/03 09:31:35;;;;;;;18.35;5.65;;;8.20;86.40;;;;;;5024889;28;20037;-63
2022/03/03 09:34:00;;;;;;;12.20;5.40;;;8.30;87.20;;;;;;5024469;28;20036;-62
2022/03/03 09:36:26;;;;;;;13.00;5.40;;;8.40;84.60;;;;;;5026262;28;20104;-61
2022/03/03 09:38:51;;;;;;;9.25;4.78;;;8.50;83.70;;;;;;5026284;28;20056;-60
2022/03/03 09:41:17;;;;;;;14.98;5.65;;;8.60;84.00;;;;;;5025794;28;20029;-60
2022/03/03 09:43:43;;;;;;;12.73;5.10;;;8.70;81.70;;;;;;5024687;28;20443;-62
2022/03/03 09:46:10;;;;;;;14.23;5.35;;;8.80;80.70;;;;;;5024686;28;20029;-61
2022/03/03 09:48:37;;;;;;;15.73;6.25;;;8.90;81.30;;;;;;5026716;28;20404;-61
2022/03/03 09:51:03;;;;;;;11.77;4.93;;;8.90;83.50;;;;;;5024326;28;20033;-61
2022/03/03 09:53:28;;;;;;;11.52;4.63;;;8.90;79.10;;;;;;5027805;28;20040;-60
2022/03/03 09:55:54;;;;;;;14.80;5.80;;;9.10;82.10;;;;;;5024263;28;20037;-61
2022/03/03 09:58:20;;;;;;;11.93;5.60;;;9.10;79.40;;;;;;5027415;28;20492;-62
2022/03/03 10:00:46;;;;;;;9.23;4.35;;;9.30;78.40;;;;;;5026068;28;20091;-61
2022/03/03 10:03:17;;;;;;;12.88;5.63;;;9.30;80.80;;;;;;5023947;28;20044;-62
2022/03/03 10:05:48;;;;;;;11.82;4.90;;;9.30;77.90;;;;;;5023595;28;20049;-61
2022/03/03 10:08:16;;;;;;;14.10;5.57;;;9.30;78.70;;;;;;5026373;28;20026;-61
2022/03/03 10:10:45;;;;;;;15.45;4.93;;;9.50;82.80;;;;;;5025719;28;20134;-60
2022/03/03 10:13:14;;;;;;;12.02;4.53;;;9.50;73.20;;;;;;5025815;28;20030;-62
2022/03/03 10:15:40;;;;;;;11.23;4.65;;;9.50;75.70;;;;;;5024414;28;20026;-61
2022/03/03 10:18:10;;;;;;;12.48;4.47;;;9.50;73.30;;;;;;5026844;28;20547;-61
2022/03/03 10:20:46;;;;;;;8.10;3.95;;;9.40;75.30;;;;;;5023427;28;20038;-60
2022/03/03 10:23:11;;;;;;;11.32;4.28;;;9.50;72.50;;;;;;5025431;28;20500;-62
2022/03/03 10:25:41;;;;;;;8.75;4.22;;;9.40;72.50;;;;;;5024433;28;20111;-61
2022/03/03 10:28:31;;;;;;;8.50;4.18;;;9.40;69.80;;;;;;5024300;28;20123;-61
2022/03/03 10:31:06;;;;;;;8.80;4.53;;;9.30;70.50;;;;;;5020899;28;20199;-61
2022/03/03 10:33:36;;;;;;;8.70;4.20;;;9.40;69.90;;;;;;5029301;28;20063;-62
2022/03/03 10:36:19;;;;;;;10.90;5.03;;;9.40;68.30;;;;;;5029103;28;20025;-61
2022/03/03 10:38:58;;;;;;;14.85;4.93;;;9.40;71.10;;;;;;5027516;28;20038;-60
2022/03/03 10:41:46;;;;;;;9.20;4.90;;;9.40;72.80;;;;;;5028449;28;20037;-61
2022/03/03 10:44:15;;;;;;;9.50;4.35;;;9.50;70.30;;;;;;5028243;28;20034;-61
2022/03/03 10:47:01;;;;;;;8.63;4.05;;;9.60;69.40;;;;;;5028662;28;20037;-65
2022/03/03 10:49:27;;;;;;;11.77;4.05;;;9.70;69.60;;;;;;5027393;28;20029;-60
2022/03/03 10:51:53;;;;;;;9.68;4.20;;;9.70;67.20;;;;;;5029046;28;20037;-65
2022/03/03 10:54:20;;;;;;;8.18;4.03;;;9.70;68.50;;;;;;5025468;28;20038;-61
2022/03/03 10:56:49;;;;;;;8.82;4.57;;;9.80;70.10;;;;;;5028564;28;20061;-62
2022/03/03 10:59:23;;;;;;;10.07;4.80;;;9.80;68.90;;;;;;5026576;28;20042;-60
2022/03/03 11:01:49;;;;;;;11.20;5.45;;;9.90;69.40;;;;;;5025555;28;20041;-63
2022/03/03 11:04:18;;;;;;;13.15;4.72;;;9.90;66.70;;;;;;5029519;28;20068;-61
2022/03/03 11:06:44;;;;;;;9.55;4.40;;;10.00;67.90;;;;;;5023572;28;20037;-60
2022/03/03 11:09:10;;;;;;;7.68;3.63;;;10.00;67.70;;;;;;5024266;28;20057;-62
2022/03/03 11:11:37;;;;;;;9.27;3.83;;;10.10;65.70;;;;;;5027116;28;20523;-60
2022/03/03 11:14:03;;;;;;;10.77;3.92;;;10.00;64.80;;;;;;5025880;28;20116;-61
2022/03/03 11:16:29;;;;;;;7.95;3.92;;;10.10;65.80;;;;;;5027316;28;20129;-62
2022/03/03 11:18:55;;;;;;;9.77;4.22;;;10.10;65.30;;;;;;5027360;28;20030;-60
2022/03/03 11:21:21;;;;;;;8.30;4.55;;;10.10;66.10;;;;;;5027510;28;20140;-60
2022/03/03 11:23:52;;;;;;;11.20;4.25;;;10.10;67.20;;;;;;5025993;28;20041;-60
2022/03/03 11:26:41;;;;;;;7.82;3.67;;;10.10;66.70;;;;;;5025849;28;20554;-61
2022/03/03 11:29:12;;;;;;;9.23;3.97;;;10.20;68.30;;;;;;5026305;28;20044;-60
2022/03/03 11:31:43;;;;;;;10.93;4.53;;;10.30;67.00;;;;;;5028056;28;20061;-62
2022/03/03 11:34:21;;;;;;;10.52;4.88;;;10.30;65.60;;;;;;5030289;28;20030;-60
2022/03/03 11:36:59;;;;;;;8.50;3.72;;;10.40;66.70;;;;;;5026732;28;20049;-61
2022/03/03 11:39:43;;;;;;;10.15;4.35;;;10.40;66.90;;;;;;5024884;28;20041;-64
2022/03/03 11:42:24;;;;;;;11.32;4.78;;;10.40;69.00;;;;;;5025800;28;20034;-61
2022/03/03 11:44:53;;;;;;;11.45;4.65;;;10.50;66.50;;;;;;5025617;28;20384;-60
2022/03/03 11:47:29;;;;;;;7.70;3.42;;;10.50;64.90;;;;;;5026405;28;20049;-62
2022/03/03 11:50:19;;;;;;;12.77;4.35;;;10.50;65.00;;;;;;5027258;28;20034;-61
2022/03/03 11:52:53;;;;;;;9.80;4.60;;;10.50;63.90;;;;;;5029216;28;20034;-61
2022/03/03 11:55:30;;;;;;;9.30;4.43;;;10.50;65.00;;;;;;5041310;28;20080;-62
2022/03/03 11:58:09;;;;;;;6.40;3.63;;;10.50;65.20;;;;;;5025920;28;20055;-62
2022/03/03 12:00:39;;;;;;;11.15;4.50;;;10.60;65.50;;;;;;5025711;28;20037;-62
2022/03/03 12:03:07;;;;;;;8.82;3.38;;;10.60;64.70;;;;;;5026280;28;20041;-60
2022/03/03 12:05:34;;;;;;;8.23;3.63;;;10.70;62.20;;;;;;5030158;28;20033;-61
2022/03/03 12:08:04;;;;;;;8.02;3.83;;;10.70;60.40;;;;;;5028405;28;20049;-61
2022/03/03 12:10:31;;;;;;;9.48;3.95;;;10.80;61.40;;;;;;5027264;28;20044;-61
2022/03/03 12:13:26;;;;;;;10.10;4.40;;;10.80;60.50;;;;;;5028044;28;20497;-61
2022/03/03 12:16:10;;;;;;;8.98;4.60;;;10.80;61.50;;;;;;5025020;28;20041;-61
2022/03/03 12:18:36;;;;;;;7.18;4.07;;;10.70;62.00;;;;;;5027112;28;20037;-61
2022/03/03 12:21:23;;;;;;;8.15;4.05;;;10.70;59.80;;;;;;5028365;28;20033;-61
2022/03/03 12:24:12;;;;;;;9.75;3.80;;;10.80;62.70;;;;;;5026680;28;20048;-61
2022/03/03 12:26:56;;;;;;;10.82;4.38;;;10.80;61.70;;;;;;5025818;28;20045;-61
2022/03/03 12:29:48;;;;;;;9.75;4.70;;;10.90;60.80;;;;;;5025390;28;20045;-60
2022/03/03 12:32:41;;;;;;;7.45;3.50;;;10.90;60.90;;;;;;5026666;28;20562;-62
2022/03/03 12:35:12;;;;;;;6.38;3.42;;;10.90;61.20;;;;;;5027068;28;20065;-61
2022/03/03 12:37:46;;;;;;;7.32;3.72;;;10.90;60.20;;;;;;5025654;28;20041;-63
2022/03/03 12:40:14;;;;;;;10.13;3.70;;;10.80;59.70;;;;;;5027592;28;20098;-60
2022/03/03 12:42:43;;;;;;;8.00;3.53;;;10.80;61.10;;;;;;5026721;28;20504;-60
2022/03/03 12:45:11;;;;;;;10.32;4.55;;;10.90;61.20;;;;;;5027934;28;20117;-60
2022/03/03 12:47:42;;;;;;;8.80;3.75;;;10.90;60.30;;;;;;5028098;28;20072;-62
2022/03/03 12:50:12;;;;;;;;;;;10.90;60.50;;;;;;5028151;28;20033;-60
2022/03/03 12:52:40;;;;;;;8.88;3.72;;;10.90;60.80;;;;;;5027675;28;20407;-61